Terminal Aerodrome Forecast
Issued by NWS Brownsville, TX

Home | Current Version | Previous Version | Text Only | Print | Product List | Glossary On
Versions: 1 2 3 4 5 6 7 8 9 10 11 12 13 14 15 16 17 18 19 20 21 22 23
000
FTUS44 KBRO 231800 AAA
TAFMFE
TAF AMD
KMFE 231844Z 2319/2418 14013G20KT P6SM OVC035
     FM240200 13018G24KT P6SM BKN019
     FM240400 14016G22KT P6SM OVC019
     FM240900 15016KT P6SM OVC010=

USA.gov is the U.S. government's official web portal to all federal, state and local government web resources and services.